MKJS/MBJ METAR and TAF weather

Enter ICAO airport designator
Station Type Date Time Source
MKJS METAR 2020/01/24 03:00 UTC NOAA

MKJS 240300Z 14004KT 9999 FEW024 22/15 Q1014


Station Type Date Time Source
MKJS Decoded METAR 2020/01/24 03:00 UTC NOAA

Montego Bay / Sangster, Jamaica (MKJS) 18-30N 077-55W 8M
Jan 23, 2020 - 10:00 PM EST / 2020.01.24 0300 UTC
Wind: from the SE (140 degrees) at 5 MPH (4 KT):0
Visibility: greater than 7 mile(s):0
Sky conditions: mostly clear
Temperature: 71 F (22 C)
Dew Point: 59 F (15 C)
Relative Humidity: 64%
Pressure (altimeter): 29.94 in. Hg (1014 hPa)
ob: MKJS 240300Z 14004KT 9999 FEW024 22/15 Q1014
cycle: 3

Station Type Date Time Source
MKJS TAF 2020/01/23 18:15 UTC NOAA

TAF MKJS 231715Z 2318/2418 36010KT 9999 FEW020
BECMG 2401/2403 16003KT
BECMG 2414/2416 05007KT

Example: see airport list